Pagrindinis puslapis
METAR-TAF:

METAR-TAF

Oro uostai :

Parauapebas, Para, Brazilija

platuma: 06-07S, ilguma: 050-00W, Aukštis: 621 m

METAR: trūkstamas

Laikas: 20:09 (23:09 UTC)

Prognozė

Ataskaita buvo paskelbta 8 valandos ir 54 minutes, ne 14:15 UTC
Prognozė galioja nuo 05 metu 18 UTC su 06 metu 06 UTC
Vėjas 5 kt iš Šiaurės Rytų
Matomumas 10 km arba daugiau
Išsisklaidę debesys ne aukštis 2000 ft
Mažai debesys ne aukštis 2500 ft, aukštai iškilę kamuoliniai debesys.
Laikinai
nuo 05 metu 18 UTC su 05 metu 21 UTC
Vėjas 7 kt iš Rytų
Išsisklaidę debesys ne aukštis 2000 ft
Mažai debesys ne aukštis 2500 ft, Liūtiniai kamuoliniai debesys.
perkūnija
Tapsmas
nuo 05 metu 21 UTC su 05 metu 23 UTC
Išsisklaidę debesys ne aukštis 2000 ft
Tapsmas
nuo 06 metu 04 UTC su 06 metu 06 UTC
Vėjas kt iš Šiaurės
Mažai debesys ne aukštis 2000 ft

TAF: SBCJ 051415Z 0518/0606 05005KT 9999 SCT020 FEW025TCU TX27/0518Z TN22/0606Z TEMPO 0518/0521 10007KT TS SCT020 FEW025CB BECMG 0521/0523 SCT020 BECMG 0604/0606 00000KT FEW020 RMK PFV

Orai ataskaitas ir orų prognozės (METAR, TAF).

turimą stotys yra geltonos ir raudonos taškus žemėlapyje.

Perkelti pele per norėdami pamatyti stoties vardą.

Tada spustelėkite, norėdami matyti oro stebėjimo ir prognozės.

Norėdami pakeisti žemėlapį: spustelėkite ant žalios mygtukų su juodo kryžiaus žemyn,; žalią mygtuką su brūkšneliu, jei norite nutolinti; arba žalių rodyklių gretimoms žemėlapius.


METAR-TAF: